Time;durP1;ratioP1;P1;durP2;ratioP2;P2;SDS_P1;SDS_P2;PMS_P1;PMS_P2;Temp;Humidity;BMP_temperature;BMP_pressure;BME280_temperature;BME280_humidity;BME280_pressure;Samples;Min_cycle;Max_cycle;Signal;HPM_P1;HPM_P2
2021/08/10 00:00:45;;;;;;;6.15;1.55;;;17.70;89.80;;;;;;4993449;28;20027;-80
2021/08/10 00:03:11;;;;;;;2.78;1.45;;;17.80;89.60;;;;;;4992381;28;20359;-79
2021/08/10 00:05:37;;;;;;;4.65;1.30;;;17.80;89.20;;;;;;4993949;28;20023;-79
2021/08/10 00:08:03;;;;;;;2.33;1.20;;;17.90;88.80;;;;;;4992607;28;20027;-88
2021/08/10 00:10:30;;;;;;;3.10;1.17;;;17.80;88.50;;;;;;4992888;28;20026;-80
2021/08/10 00:12:55;;;;;;;3.78;1.30;;;17.90;88.50;;;;;;4992602;28;20113;-80
2021/08/10 00:15:21;;;;;;;2.90;1.38;;;17.90;88.30;;;;;;4992038;28;20554;-81
2021/08/10 00:17:47;;;;;;;3.67;1.50;;;17.90;88.10;;;;;;4992973;28;20084;-79
2021/08/10 00:20:13;;;;;;;2.95;1.30;;;17.90;88.20;;;;;;4992203;28;20026;-81
2021/08/10 00:22:39;;;;;;;3.63;1.33;;;17.90;88.00;;;;;;4992731;28;20054;-79
2021/08/10 00:25:06;;;;;;;2.60;1.30;;;17.80;88.50;;;;;;4992237;28;20022;-81
2021/08/10 00:27:32;;;;;;;4.55;1.70;;;17.80;88.90;;;;;;4993838;28;20101;-80
2021/08/10 00:29:58;;;;;;;3.53;1.50;;;17.70;88.80;;;;;;4992682;28;20037;-80
2021/08/10 00:32:23;;;;;;;2.88;1.40;;;17.60;89.40;;;;;;4992218;28;20211;-80
2021/08/10 00:34:50;;;;;;;3.47;1.38;;;17.50;90.00;;;;;;4992657;28;20019;-80
2021/08/10 00:37:16;;;;;;;3.67;1.17;;;17.50;89.60;;;;;;4993949;28;20042;-80
2021/08/10 00:39:42;;;;;;;3.13;1.55;;;17.60;88.80;;;;;;4996678;28;20026;-80
2021/08/10 00:42:07;;;;;;;3.28;1.30;;;17.70;88.80;;;;;;4996217;28;20077;-80
2021/08/10 00:44:33;;;;;;;2.63;1.65;;;17.70;88.50;;;;;;4996705;28;20486;-80
2021/08/10 00:46:59;;;;;;;4.07;1.40;;;17.80;88.30;;;;;;4996348;28;20383;-80
2021/08/10 00:49:24;;;;;;;3.00;1.50;;;17.80;88.20;;;;;;4996011;28;20137;-79
2021/08/10 00:51:51;;;;;;;3.17;1.30;;;17.70;88.20;;;;;;4996652;28;20049;-80
2021/08/10 00:54:17;;;;;;;2.92;1.48;;;17.80;88.10;;;;;;4995966;28;20026;-81
2021/08/10 00:56:42;;;;;;;3.67;1.73;;;17.70;88.00;;;;;;4997460;28;20105;-81
2021/08/10 00:59:08;;;;;;;4.30;1.50;;;17.70;88.10;;;;;;4997086;28;20061;-81
2021/08/10 01:01:34;;;;;;;3.85;1.42;;;17.70;88.30;;;;;;4996599;28;20030;-80
2021/08/10 01:04:00;;;;;;;5.75;1.83;;;17.60;88.60;;;;;;4997714;28;20026;-81
2021/08/10 01:06:45;;;;;;;5.10;1.63;;;17.60;88.60;;;;;;4996176;28;20197;-81
2021/08/10 01:09:18;;;;;;;5.70;1.90;;;17.50;88.70;;;;;;4992755;28;20045;-81
2021/08/10 01:12:13;;;;;;;4.18;1.67;;;17.50;88.50;;;;;;4996474;28;20066;-81
2021/08/10 01:15:11;;;;;;;3.38;1.40;;;17.50;88.70;;;;;;5012528;28;20094;-82
2021/08/10 01:18:01;;;;;;;2.65;1.48;;;17.40;88.80;;;;;;4996185;28;20034;-80
2021/08/10 01:20:48;;;;;;;3.17;1.45;;;17.40;88.70;;;;;;4995273;28;20026;-80
2021/08/10 01:23:17;;;;;;;5.55;1.55;;;17.40;88.50;;;;;;4996283;28;20030;-81
2021/08/10 01:26:12;;;;;;;3.25;1.40;;;17.40;88.80;;;;;;4996753;28;20106;-80
2021/08/10 01:28:52;;;;;;;3.47;1.45;;;17.30;89.10;;;;;;4996800;28;20023;-80
2021/08/10 01:31:25;;;;;;;4.15;1.55;;;17.40;89.00;;;;;;4996070;28;20033;-81
2021/08/10 01:33:57;;;;;;;2.13;1.25;;;17.40;88.80;;;;;;4995699;28;20034;-80
2021/08/10 01:36:23;;;;;;;3.45;1.30;;;17.40;88.60;;;;;;4994934;28;20089;-80
2021/08/10 01:38:54;;;;;;;4.20;1.50;;;17.40;88.50;;;;;;4995697;28;20033;-81
2021/08/10 01:41:21;;;;;;;1.95;1.60;;;17.40;88.40;;;;;;4995148;28;20033;-81
2021/08/10 01:43:49;;;;;;;2.13;1.23;;;17.40;88.50;;;;;;4995602;28;20127;-80
2021/08/10 01:46:16;;;;;;;4.90;1.30;;;17.40;88.40;;;;;;4994398;28;20483;-80
2021/08/10 01:48:43;;;;;;;3.00;1.38;;;17.40;88.30;;;;;;4995228;28;20384;-80
2021/08/10 01:51:10;;;;;;;3.22;1.35;;;17.50;88.30;;;;;;4995888;28;20119;-89
2021/08/10 01:53:38;;;;;;;4.80;1.52;;;17.40;88.50;;;;;;4995147;28;20026;-80
2021/08/10 01:56:04;;;;;;;2.78;1.60;;;17.40;88.70;;;;;;4994820;28;20459;-80
2021/08/10 01:58:31;;;;;;;4.18;1.52;;;17.30;88.70;;;;;;4994670;28;20049;-80
2021/08/10 02:00:58;;;;;;;3.58;1.60;;;17.30;88.90;;;;;;4995358;28;20117;-80
2021/08/10 02:03:26;;;;;;;3.70;1.70;;;17.30;89.00;;;;;;4994494;28;20541;-80
2021/08/10 02:05:53;;;;;;;4.82;1.50;;;17.30;89.10;;;;;;4996055;28;20027;-80
2021/08/10 02:08:20;;;;;;;3.83;1.50;;;17.20;89.50;;;;;;4994463;28;20030;-81
2021/08/10 02:10:46;;;;;;;3.22;1.35;;;17.20;89.50;;;;;;4995331;28;20022;-81
2021/08/10 02:13:13;;;;;;;3.05;1.25;;;17.10;89.40;;;;;;4994978;28;20045;-81
2021/08/10 02:15:44;;;;;;;3.28;1.48;;;17.10;89.50;;;;;;4994934;28;20411;-81
2021/08/10 02:18:10;;;;;;;;;;;17.10;89.70;;;;;;4996220;28;20121;-88
2021/08/10 02:20:37;;;;;;;4.65;1.55;;;17.10;89.90;;;;;;4996146;28;19993;-79
2021/08/10 02:23:05;;;;;;;3.00;1.40;;;17.10;89.60;;;;;;4995675;28;20478;-79
2021/08/10 02:25:32;;;;;;;5.18;1.50;;;17.00;90.10;;;;;;4994149;28;20367;-79
2021/08/10 02:28:01;;;;;;;3.42;1.40;;;17.10;89.40;;;;;;4994911;28;20419;-81
2021/08/10 02:30:33;;;;;;;5.28;1.60;;;17.00;89.20;;;;;;4994572;28;20068;-81
2021/08/10 02:33:01;;;;;;;;;;;17.00;89.30;;;;;;4995358;28;20029;-81
2021/08/10 02:35:29;;;;;;;4.95;1.50;;;16.90;89.80;;;;;;4994288;28;20357;-81
2021/08/10 02:37:58;;;;;;;3.00;1.02;;;16.90;89.90;;;;;;4994180;28;20518;-81
2021/08/10 02:40:27;;;;;;;1.85;1.13;;;16.90;90.30;;;;;;4995808;28;20033;-81
2021/08/10 02:42:57;;;;;;;3.38;1.35;;;16.90;89.90;;;;;;5013922;28;20044;-80
2021/08/10 02:45:23;;;;;;;3.20;1.42;;;16.90;89.60;;;;;;5013515;28;20036;-81
2021/08/10 02:47:57;;;;;;;4.22;1.35;;;16.90;89.80;;;;;;5013888;28;20030;-80
2021/08/10 02:50:25;;;;;;;2.50;1.38;;;16.80;90.10;;;;;;5014675;28;20022;-80
2021/08/10 02:52:52;;;;;;;4.82;1.52;;;16.80;90.20;;;;;;5030108;28;20026;-80
2021/08/10 02:55:19;;;;;;;3.47;1.30;;;16.80;90.30;;;;;;5029730;28;20084;-80
2021/08/10 02:57:52;;;;;;;3.40;1.35;;;16.80;90.20;;;;;;5013685;28;20682;-80
2021/08/10 03:00:18;;;;;;;3.28;1.10;;;16.70;90.30;;;;;;5012784;28;20406;-80
2021/08/10 03:02:48;;;;;;;3.30;1.45;;;16.80;90.20;;;;;;5013438;28;20018;-80
2021/08/10 03:05:24;;;;;;;4.38;1.83;;;16.80;90.30;;;;;;5029864;28;20037;-81
2021/08/10 03:07:58;;;;;;;3.90;1.50;;;16.60;90.50;;;;;;5013874;28;20120;-81
2021/08/10 03:10:27;;;;;;;11.98;1.23;;;16.60;90.70;;;;;;5014442;28;20026;-81
2021/08/10 03:12:54;;;;;;;2.15;1.23;;;16.60;90.60;;;;;;5013768;28;20375;-81
2021/08/10 03:15:24;;;;;;;3.00;1.48;;;16.70;90.50;;;;;;5029427;28;20053;-80
2021/08/10 03:17:52;;;;;;;2.67;1.30;;;16.70;90.30;;;;;;5013503;28;20030;-79
2021/08/10 03:20:20;;;;;;;2.40;1.35;;;16.80;90.10;;;;;;5013129;28;20116;-80
2021/08/10 03:22:47;;;;;;;2.92;1.38;;;16.80;90.00;;;;;;5029828;28;20026;-80
2021/08/10 03:25:17;;;;;;;3.72;1.25;;;16.80;90.00;;;;;;5013041;28;20022;-79
2021/08/10 03:27:43;;;;;;;3.75;1.40;;;16.90;89.70;;;;;;5013281;28;20052;-80
2021/08/10 03:30:10;;;;;;;3.97;1.38;;;16.80;89.70;;;;;;5013329;28;20371;-80
2021/08/10 03:32:37;;;;;;;4.40;1.65;;;16.90;89.50;;;;;;5012690;28;20022;-80
2021/08/10 03:35:04;;;;;;;5.55;1.70;;;16.80;89.40;;;;;;5013355;28;20040;-80
2021/08/10 03:37:31;;;;;;;3.28;1.33;;;16.80;90.00;;;;;;5012698;28;20046;-81
2021/08/10 03:39:59;;;;;;;4.47;1.58;;;16.70;90.10;;;;;;5013298;28;20390;-80
2021/08/10 03:42:25;;;;;;;3.92;1.30;;;16.70;90.40;;;;;;5013898;28;20028;-80
2021/08/10 03:44:51;;;;;;;5.28;1.58;;;16.70;90.40;;;;;;5012575;28;20036;-79
2021/08/10 03:47:18;;;;;;;2.88;1.00;;;16.60;90.30;;;;;;5013535;28;20058;-81
2021/08/10 03:49:45;;;;;;;2.40;1.20;;;16.70;90.40;;;;;;5013197;28;20030;-80
2021/08/10 03:52:12;;;;;;;5.82;1.73;;;16.60;90.40;;;;;;5012814;28;20021;-80
2021/08/10 03:54:38;;;;;;;2.38;1.20;;;16.50;90.50;;;;;;5012036;28;20057;-80
2021/08/10 03:57:04;;;;;;;6.05;1.33;;;16.50;90.50;;;;;;5013999;28;20097;-80
2021/08/10 03:59:32;;;;;;;1.83;1.17;;;16.60;90.40;;;;;;5012015;28;20022;-81
2021/08/10 04:01:59;;;;;;;5.45;1.20;;;16.70;90.30;;;;;;5009061;28;20027;-81
2021/08/10 04:04:27;;;;;;;6.60;1.25;;;16.70;90.30;;;;;;4992608;28;20026;-81
2021/08/10 04:06:53;;;;;;;3.63;1.30;;;16.60;90.20;;;;;;4993202;28;20014;-78
2021/08/10 04:09:21;;;;;;;5.47;1.10;;;16.60;90.20;;;;;;5006138;28;20038;-81
2021/08/10 04:11:47;;;;;;;3.10;1.17;;;16.60;90.20;;;;;;4995981;28;20101;-81
2021/08/10 04:14:14;;;;;;;4.10;1.38;;;16.60;90.20;;;;;;4997576;28;20018;-79
2021/08/10 04:17:01;;;;;;;4.45;1.40;;;16.70;90.10;;;;;;4996696;28;20460;-78
2021/08/10 04:19:30;;;;;;;2.33;1.15;;;16.70;90.20;;;;;;4996497;28;20022;-81
2021/08/10 04:21:55;;;;;;;3.25;1.20;;;16.70;90.30;;;;;;4997011;28;20459;-78
2021/08/10 04:24:21;;;;;;;3.03;1.27;;;16.60;90.40;;;;;;4997578;28;20025;-78
2021/08/10 04:26:47;;;;;;;2.30;1.10;;;16.60;90.50;;;;;;4996963;28;20515;-77
2021/08/10 04:29:15;;;;;;;1.52;1.10;;;16.50;90.80;;;;;;4996414;28;20030;-78
2021/08/10 04:31:41;;;;;;;4.13;1.38;;;16.50;90.70;;;;;;4996099;28;20033;-77
2021/08/10 04:34:07;;;;;;;2.88;1.10;;;16.60;90.80;;;;;;4996521;28;20026;-77
2021/08/10 04:36:33;;;;;;;4.03;1.30;;;16.60;90.90;;;;;;4997592;28;20137;-77
2021/08/10 04:39:00;;;;;;;2.90;1.20;;;16.70;90.60;;;;;;4999637;28;20118;-78
2021/08/10 04:41:25;;;;;;;3.88;1.65;;;16.60;90.90;;;;;;4996055;28;20432;-78
2021/08/10 04:43:52;;;;;;;4.97;1.42;;;16.50;90.80;;;;;;4997625;28;20093;-78
2021/08/10 04:46:19;;;;;;;2.88;1.25;;;16.70;90.50;;;;;;4997866;28;20054;-78
2021/08/10 04:48:45;;;;;;;1.67;1.10;;;16.70;90.10;;;;;;4996517;28;20066;-78
2021/08/10 04:51:12;;;;;;;7.07;1.45;;;16.80;90.00;;;;;;4996552;28;20452;-77
2021/08/10 04:53:38;;;;;;;3.50;1.35;;;16.90;89.80;;;;;;4996035;28;20054;-79
2021/08/10 04:56:04;;;;;;;3.60;1.38;;;16.90;89.80;;;;;;4997319;28;20480;-77
2021/08/10 04:58:30;;;;;;;2.47;1.10;;;16.90;89.90;;;;;;4996091;28;20033;-78
2021/08/10 05:00:56;;;;;;;2.60;1.13;;;16.90;89.80;;;;;;4995852;28;20149;-78
2021/08/10 05:03:21;;;;;;;3.80;1.05;;;17.00;90.00;;;;;;4995725;28;20018;-78
2021/08/10 05:05:48;;;;;;;4.25;1.85;;;17.00;90.00;;;;;;4996210;28;20027;-78
2021/08/10 05:08:14;;;;;;;4.53;1.70;;;17.00;90.00;;;;;;5011545;28;20034;-78
2021/08/10 05:10:42;;;;;;;3.55;1.27;;;17.00;90.10;;;;;;5015200;28;20033;-81
2021/08/10 05:13:08;;;;;;;3.95;1.38;;;17.10;90.10;;;;;;5017001;28;20080;-82
2021/08/10 05:15:33;;;;;;;2.67;1.30;;;17.10;90.10;;;;;;5015435;28;20029;-80
2021/08/10 05:17:59;;;;;;;3.63;1.48;;;17.10;90.30;;;;;;5015653;28;20069;-79
2021/08/10 05:20:25;;;;;;;4.20;1.45;;;17.10;90.30;;;;;;5015027;28;20379;-80
2021/08/10 05:22:50;;;;;;;3.25;1.60;;;17.20;90.40;;;;;;5015115;28;20029;-79
2021/08/10 05:25:16;;;;;;;2.00;1.13;;;17.20;90.50;;;;;;5016530;28;20442;-80
2021/08/10 05:27:41;;;;;;;2.00;1.27;;;17.20;90.50;;;;;;5015175;28;20029;-80
2021/08/10 05:30:08;;;;;;;3.03;1.33;;;17.30;90.60;;;;;;5015435;28;20263;-80
2021/08/10 05:32:34;;;;;;;4.60;2.17;;;17.20;90.50;;;;;;5015455;28;20362;-80
2021/08/10 05:34:59;;;;;;;2.83;1.52;;;17.30;90.60;;;;;;5016797;28;20021;-80
2021/08/10 05:37:25;;;;;;;3.05;1.50;;;17.30;90.60;;;;;;5014874;28;20053;-81
2021/08/10 05:39:50;;;;;;;4.60;2.05;;;17.30;90.60;;;;;;5015590;28;20022;-78
2021/08/10 05:42:16;;;;;;;2.85;1.52;;;17.30;90.60;;;;;;5014894;28;20022;-78
2021/08/10 05:44:41;;;;;;;3.65;1.95;;;17.30;90.50;;;;;;5014258;28;20029;-78
2021/08/10 05:47:07;;;;;;;2.90;1.60;;;17.40;90.50;;;;;;5015085;28;20116;-79
2021/08/10 05:49:33;;;;;;;4.93;1.90;;;17.40;90.50;;;;;;5015593;28;20471;-79
2021/08/10 05:52:00;;;;;;;4.35;1.55;;;17.40;90.40;;;;;;5010846;28;20022;-79
2021/08/10 05:54:26;;;;;;;5.75;1.90;;;17.40;90.30;;;;;;5014488;28;20025;-79
2021/08/10 05:56:52;;;;;;;4.60;1.40;;;17.40;90.30;;;;;;5031245;28;20017;-79
2021/08/10 05:59:19;;;;;;;3.03;1.50;;;17.40;90.10;;;;;;5014662;28;20161;-78
2021/08/10 06:01:45;;;;;;;3.03;1.30;;;17.40;90.10;;;;;;5014042;28;20106;-79
2021/08/10 06:04:11;;;;;;;4.60;1.70;;;17.40;90.20;;;;;;5015191;28;20410;-79
2021/08/10 06:06:37;;;;;;;2.40;1.35;;;17.50;90.20;;;;;;5013442;28;20021;-79
2021/08/10 06:09:08;;;;;;;3.03;1.90;;;17.40;90.30;;;;;;5013867;28;20084;-79
2021/08/10 06:11:34;;;;;;;5.82;1.98;;;17.40;90.40;;;;;;5013561;28;20026;-78
2021/08/10 06:14:00;;;;;;;3.22;1.50;;;17.40;90.40;;;;;;5013983;28;20344;-80
2021/08/10 06:16:26;;;;;;;7.53;1.95;;;17.50;90.40;;;;;;5013822;28;20037;-87
2021/08/10 06:18:51;;;;;;;3.42;1.73;;;17.50;90.40;;;;;;5014412;28;20033;-80
2021/08/10 06:21:17;;;;;;;3.92;1.58;;;17.60;90.30;;;;;;5013696;28;20050;-80
2021/08/10 06:23:43;;;;;;;3.40;1.67;;;17.70;90.30;;;;;;5014847;28;20490;-81
2021/08/10 06:26:09;;;;;;;2.28;1.35;;;17.70;90.30;;;;;;5015030;28;20105;-80
2021/08/10 06:28:34;;;;;;;3.10;1.80;;;17.70;90.20;;;;;;5013397;28;20064;-81
2021/08/10 06:31:04;;;;;;;4.53;1.67;;;17.80;90.10;;;;;;5013939;28;20513;-80
2021/08/10 06:33:31;;;;;;;3.83;1.50;;;17.80;90.10;;;;;;5012776;28;20033;-83
2021/08/10 06:35:57;;;;;;;8.23;1.50;;;17.90;89.80;;;;;;5013413;28;20112;-81
2021/08/10 06:38:22;;;;;;;7.75;1.80;;;18.00;89.90;;;;;;5013536;28;20135;-80
2021/08/10 06:40:48;;;;;;;3.00;1.90;;;18.00;89.70;;;;;;5013122;28;20036;-85
2021/08/10 06:43:14;;;;;;;1.77;1.30;;;18.10;89.70;;;;;;5013247;28;20471;-82
2021/08/10 06:45:41;;;;;;;2.88;1.63;;;18.10;89.70;;;;;;5029800;28;20018;-81
2021/08/10 06:48:06;;;;;;;3.42;1.38;;;18.20;89.70;;;;;;5012933;28;20113;-83
2021/08/10 06:50:32;;;;;;;3.42;1.65;;;18.20;89.00;;;;;;5012452;28;20432;-80
2021/08/10 06:52:58;;;;;;;3.42;1.30;;;18.20;88.80;;;;;;5012671;28;20022;-84
2021/08/10 06:55:24;;;;;;;4.55;1.92;;;18.20;89.10;;;;;;5012183;28;20506;-80
2021/08/10 06:57:49;;;;;;;3.08;1.50;;;18.20;88.50;;;;;;5008198;28;20080;-80
2021/08/10 07:00:15;;;;;;;3.75;1.50;;;18.20;88.30;;;;;;5012256;28;20374;-83
2021/08/10 07:02:41;;;;;;;5.15;1.60;;;18.20;88.00;;;;;;5012014;28;20068;-83
2021/08/10 07:05:07;;;;;;;3.78;1.60;;;18.20;87.90;;;;;;5013015;28;20018;-83
2021/08/10 07:07:33;;;;;;;6.82;1.50;;;18.20;88.20;;;;;;5029025;28;20029;-85
2021/08/10 07:09:59;;;;;;;4.03;1.73;;;18.30;88.30;;;;;;5004547;28;20168;-82
2021/08/10 07:12:25;;;;;;;4.13;1.60;;;18.30;88.30;;;;;;5011806;28;20049;-80
2021/08/10 07:14:50;;;;;;;2.50;1.50;;;18.30;88.80;;;;;;5012383;28;20111;-82
2021/08/10 07:17:16;;;;;;;2.88;1.38;;;18.50;88.20;;;;;;5013008;28;20022;-82
2021/08/10 07:19:42;;;;;;;1.95;1.38;;;18.60;87.60;;;;;;5012187;28;20025;-81
2021/08/10 07:22:07;;;;;;;6.40;1.75;;;18.60;87.00;;;;;;5008178;28;20187;-84
2021/08/10 07:24:33;;;;;;;2.83;1.52;;;18.70;86.10;;;;;;5029099;28;20041;-85
2021/08/10 07:26:59;;;;;;;3.47;1.23;;;18.70;86.10;;;;;;5013333;28;20029;-82
2021/08/10 07:29:24;;;;;;;4.32;1.50;;;18.80;85.10;;;;;;5013306;28;20042;-83
2021/08/10 07:31:50;;;;;;;3.20;1.20;;;18.80;84.80;;;;;;5013887;28;20057;-81
2021/08/10 07:34:16;;;;;;;2.05;1.02;;;18.80;84.30;;;;;;5013305;28;20459;-80
2021/08/10 07:36:41;;;;;;;4.90;1.20;;;18.90;84.00;;;;;;5012296;28;20402;-79
2021/08/10 07:39:07;;;;;;;1.70;1.10;;;18.90;84.00;;;;;;5011968;28;20033;-79
2021/08/10 07:41:32;;;;;;;5.60;1.50;;;18.90;84.30;;;;;;5012259;28;20479;-83
2021/08/10 07:43:58;;;;;;;2.30;1.35;;;19.00;83.60;;;;;;5012134;28;20481;-81
2021/08/10 07:46:24;;;;;;;3.60;1.40;;;19.10;83.80;;;;;;5011671;28;20038;-80
2021/08/10 07:48:50;;;;;;;5.10;1.30;;;19.10;84.10;;;;;;5011950;28;20108;-79
2021/08/10 07:51:17;;;;;;;2.55;1.23;;;19.10;84.20;;;;;;5011902;28;20025;-80
2021/08/10 07:53:43;;;;;;;4.78;1.30;;;19.10;84.00;;;;;;5010676;28;20017;-80
2021/08/10 07:56:11;;;;;;;2.53;1.08;;;19.10;83.40;;;;;;5012618;28;20026;-80
2021/08/10 07:58:37;;;;;;;5.80;1.38;;;19.20;83.70;;;;;;5010951;28;20079;-80
2021/08/10 08:01:04;;;;;;;5.78;1.60;;;19.30;83.70;;;;;;5006147;28;20022;-81
2021/08/10 08:03:30;;;;;;;1.95;1.10;;;19.40;83.40;;;;;;5012799;28;20104;-87
2021/08/10 08:05:55;;;;;;;4.15;1.23;;;19.50;83.10;;;;;;5012276;28;20104;-79
2021/08/10 08:08:22;;;;;;;2.78;1.17;;;19.60;82.40;;;;;;5012679;28;20395;-79
2021/08/10 08:10:47;;;;;;;3.75;1.15;;;19.70;82.80;;;;;;5011147;28;20025;-79
2021/08/10 08:13:13;;;;;;;3.35;1.50;;;19.80;83.10;;;;;;5011907;28;20026;-80
2021/08/10 08:15:39;;;;;;;3.95;1.48;;;19.90;82.90;;;;;;5010593;28;20053;-79
2021/08/10 08:18:32;;;;;;;4.30;1.55;;;19.90;82.40;;;;;;5011210;28;20116;-82
2021/08/10 08:20:58;;;;;;;4.68;1.38;;;20.00;82.40;;;;;;5009804;28;20025;-82
2021/08/10 08:23:25;;;;;;;2.40;1.10;;;20.10;81.60;;;;;;5011476;28;20018;-81
2021/08/10 08:25:51;;;;;;;2.88;1.30;;;20.20;80.80;;;;;;5010792;28;20040;-81
2021/08/10 08:28:17;;;;;;;4.28;1.50;;;20.20;79.40;;;;;;5010927;28;20036;-81
2021/08/10 08:30:43;;;;;;;2.38;0.93;;;20.30;79.00;;;;;;5010823;28;20117;-80
2021/08/10 08:33:10;;;;;;;3.40;1.42;;;20.40;78.50;;;;;;5011423;28;20026;-82
2021/08/10 08:35:37;;;;;;;2.30;1.10;;;20.40;78.60;;;;;;5027710;28;20030;-81
2021/08/10 08:38:04;;;;;;;4.18;1.13;;;20.40;76.90;;;;;;5011917;28;20046;-81
2021/08/10 08:40:30;;;;;;;3.25;1.40;;;20.40;76.60;;;;;;5011934;28;20022;-82
2021/08/10 08:42:56;;;;;;;3.92;0.82;;;20.40;76.70;;;;;;5011750;28;20033;-80
2021/08/10 08:45:22;;;;;;;3.10;1.10;;;20.40;76.90;;;;;;5011366;28;20029;-81
2021/08/10 08:47:53;;;;;;;1.35;0.80;;;20.50;76.20;;;;;;5009860;28;20513;-81
2021/08/10 08:50:20;;;;;;;3.22;1.00;;;20.50;76.10;;;;;;5005881;28;20033;-82
2021/08/10 08:52:50;;;;;;;3.20;1.25;;;20.50;76.00;;;;;;5011765;28;20026;-82
2021/08/10 08:55:16;;;;;;;3.60;0.80;;;20.60;76.50;;;;;;5012263;28;20018;-81
2021/08/10 08:57:42;;;;;;;2.53;1.10;;;20.60;76.10;;;;;;5012219;28;20029;-81
2021/08/10 09:00:11;;;;;;;4.40;1.08;;;20.70;76.10;;;;;;5016783;28;20081;-81
2021/08/10 09:02:37;;;;;;;3.70;1.10;;;20.80;75.80;;;;;;5015144;28;20045;-81
2021/08/10 09:05:04;;;;;;;3.53;1.42;;;20.80;75.50;;;;;;5015554;28;20451;-83
2021/08/10 09:07:30;;;;;;;1.88;1.30;;;20.90;75.90;;;;;;5014891;28;20048;-89
2021/08/10 09:10:12;;;;;;;2.85;1.20;;;20.90;75.90;;;;;;5015317;28;20030;-82
2021/08/10 09:12:47;;;;;;;3.40;1.17;;;21.00;75.00;;;;;;5014548;28;20018;-77
2021/08/10 09:15:29;;;;;;;3.00;0.70;;;21.00;75.00;;;;;;5013201;28;20030;-79
2021/08/10 09:17:55;;;;;;;1.35;0.90;;;21.00;74.40;;;;;;5000035;28;20026;-80
2021/08/10 09:20:22;;;;;;;2.20;0.95;;;21.00;74.30;;;;;;5015611;28;20128;-78
2021/08/10 09:22:52;;;;;;;3.25;1.08;;;21.00;74.30;;;;;;5015279;28;20414;-80
2021/08/10 09:25:18;;;;;;;3.80;1.00;;;21.00;73.80;;;;;;5011253;28;20065;-86
2021/08/10 09:27:43;;;;;;;2.80;1.30;;;21.00;73.40;;;;;;5014394;28;20069;-79
2021/08/10 09:30:10;;;;;;;4.00;0.95;;;21.00;73.80;;;;;;5014729;28;20028;-79
2021/08/10 09:32:51;;;;;;;2.20;0.90;;;21.00;74.10;;;;;;5014269;28;20049;-79
2021/08/10 09:35:18;;;;;;;2.97;0.73;;;21.00;73.80;;;;;;5014064;28;20053;-80
2021/08/10 09:38:05;;;;;;;2.28;0.93;;;21.00;74.30;;;;;;5009782;28;20507;-80
2021/08/10 09:40:36;;;;;;;3.80;1.27;;;21.00;74.60;;;;;;5025454;28;20014;-82
2021/08/10 09:43:29;;;;;;;4.05;1.00;;;21.10;73.80;;;;;;5013952;28;20029;-80
2021/08/10 09:46:19;;;;;;;3.80;1.02;;;21.10;73.70;;;;;;5025819;28;20235;-80
2021/08/10 09:48:57;;;;;;;1.92;1.00;;;21.20;74.40;;;;;;5008815;28;20033;-81
2021/08/10 09:51:28;;;;;;;3.40;1.05;;;21.30;73.90;;;;;;5013502;28;20036;-81
2021/08/10 09:54:00;;;;;;;;;;;21.30;72.60;;;;;;5013689;28;20049;-79
2021/08/10 09:57:07;;;;;;;2.33;0.95;;;21.20;72.80;;;;;;5011094;28;19988;-79
2021/08/10 09:59:44;;;;;;;3.83;0.75;;;21.30;73.20;;;;;;5011538;28;20459;-79
2021/08/10 10:02:19;;;;;;;3.53;1.13;;;21.50;72.30;;;;;;5014454;28;20076;-82
2021/08/10 10:04:56;;;;;;;3.85;1.00;;;21.50;72.50;;;;;;5013563;28;20053;-79
2021/08/10 10:07:23;;;;;;;3.15;0.90;;;21.60;72.00;;;;;;5014374;28;20104;-81
2021/08/10 10:09:49;;;;;;;3.38;1.23;;;21.60;71.90;;;;;;5000648;28;20028;-81
2021/08/10 10:12:16;;;;;;;3.53;1.00;;;21.70;71.60;;;;;;5001645;28;20355;-81
2021/08/10 10:14:44;;;;;;;2.55;1.02;;;21.80;71.00;;;;;;5013341;28;20088;-81
2021/08/10 10:17:12;;;;;;;1.55;1.00;;;21.80;71.50;;;;;;5013940;28;20084;-81
2021/08/10 10:19:40;;;;;;;1.38;0.68;;;21.80;70.70;;;;;;5014131;28;20010;-81
2021/08/10 10:22:17;;;;;;;2.13;0.80;;;21.90;70.70;;;;;;5013299;28;20057;-81
2021/08/10 10:24:55;;;;;;;2.70;0.85;;;22.00;71.10;;;;;;5012839;28;20080;-80
2021/08/10 10:27:22;;;;;;;2.55;1.08;;;22.10;69.90;;;;;;5010475;28;20036;-81
2021/08/10 10:29:49;;;;;;;2.42;0.90;;;22.10;70.20;;;;;;5005781;28;20022;-81
2021/08/10 10:32:19;;;;;;;2.72;1.00;;;22.20;71.00;;;;;;5015290;28;20104;-82
2021/08/10 10:34:45;;;;;;;2.85;1.27;;;22.30;70.70;;;;;;5012725;28;20033;-81
2021/08/10 10:37:11;;;;;;;1.52;1.00;;;22.40;70.00;;;;;;5011320;28;20046;-78
2021/08/10 10:39:41;;;;;;;2.67;1.00;;;22.50;69.90;;;;;;5011081;28;20029;-78
2021/08/10 10:42:12;;;;;;;1.65;1.02;;;22.50;70.70;;;;;;5012464;28;20506;-79
2021/08/10 10:44:51;;;;;;;3.10;1.00;;;22.70;70.00;;;;;;5011572;28;20064;-78
2021/08/10 10:47:20;;;;;;;2.75;1.15;;;22.80;69.50;;;;;;5005666;28;20038;-78
2021/08/10 10:50:13;;;;;;;4.50;1.08;;;22.90;69.60;;;;;;4999706;28;20026;-79
2021/08/10 10:52:40;;;;;;;3.67;1.20;;;23.00;68.50;;;;;;5001134;28;20041;-80
2021/08/10 10:55:06;;;;;;;2.45;1.10;;;22.90;68.30;;;;;;5012999;28;20038;-80
2021/08/10 10:57:32;;;;;;;3.15;1.15;;;23.00;67.20;;;;;;5012435;28;20033;-84
2021/08/10 11:00:04;;;;;;;4.75;1.10;;;23.10;67.00;;;;;;4999179;28;20018;-81
2021/08/10 11:02:31;;;;;;;3.50;1.00;;;23.20;67.20;;;;;;5013117;28;20076;-80
2021/08/10 11:05:06;;;;;;;2.15;1.00;;;23.20;65.20;;;;;;5013070;28;20026;-81
2021/08/10 11:07:51;;;;;;;4.47;0.80;;;23.30;63.00;;;;;;5012275;28;20021;-81
2021/08/10 11:10:43;;;;;;;2.13;1.00;;;23.30;62.40;;;;;;5012622;28;20041;-79
2021/08/10 11:13:20;;;;;;;3.83;1.08;;;23.40;63.70;;;;;;5013679;28;20018;-80
2021/08/10 11:15:46;;;;;;;4.28;1.20;;;23.50;63.90;;;;;;5012293;28;20040;-79
2021/08/10 11:18:11;;;;;;;2.22;0.95;;;23.50;65.00;;;;;;5012632;28;20026;-77
2021/08/10 11:20:47;;;;;;;1.63;1.30;;;23.50;63.60;;;;;;5011842;28;20455;-78
2021/08/10 11:23:23;;;;;;;3.47;1.08;;;23.60;62.50;;;;;;5012169;28;20018;-77
2021/08/10 11:25:59;;;;;;;4.45;1.27;;;23.70;62.80;;;;;;5011764;28;20021;-80
2021/08/10 11:28:28;;;;;;;3.50;1.15;;;23.70;62.70;;;;;;5011749;28;20026;-78
2021/08/10 11:30:59;;;;;;;3.92;1.15;;;23.80;63.10;;;;;;5011490;28;20451;-78
2021/08/10 11:33:34;;;;;;;3.07;0.97;;;23.80;63.30;;;;;;5011943;28;20057;-80
2021/08/10 11:36:23;;;;;;;2.72;1.00;;;23.80;62.40;;;;;;5012095;28;20022;-78
2021/08/10 11:38:52;;;;;;;2.47;0.85;;;23.90;59.90;;;;;;5005865;28;20075;-78
2021/08/10 11:41:23;;;;;;;2.30;0.80;;;23.90;60.30;;;;;;5011938;28;20094;-78
2021/08/10 11:43:50;;;;;;;;;;;23.90;60.00;;;;;;5026639;28;20044;-78
2021/08/10 11:46:26;;;;;;;1.55;0.82;;;23.90;60.30;;;;;;5011473;28;20348;-78
2021/08/10 11:48:56;;;;;;;3.80;1.17;;;23.90;61.60;;;;;;5010557;28;20375;-78
2021/08/10 11:51:24;;;;;;;5.38;1.10;;;24.00;60.80;;;;;;5011217;28;20367;-80
2021/08/10 11:54:05;;;;;;;2.40;1.30;;;24.00;60.90;;;;;;5011881;28;20030;-80
2021/08/10 11:56:37;;;;;;;3.58;1.13;;;24.00;61.60;;;;;;5011557;28;20025;-84
2021/08/10 11:59:26;;;;;;;4.85;1.20;;;24.10;61.10;;;;;;5011750;28;20034;-79
2021/08/10 12:01:58;;;;;;;2.75;1.20;;;24.00;61.40;;;;;;4995735;28;20033;-78
2021/08/10 12:04:28;;;;;;;3.30;0.95;;;23.90;61.50;;;;;;5012135;28;20022;-78
2021/08/10 12:06:56;;;;;;;4.35;0.98;;;23.90;61.60;;;;;;4991729;28;20030;-76
2021/08/10 12:09:24;;;;;;;1.95;1.13;;;23.90;62.00;;;;;;5008405;28;20364;-77
2021/08/10 12:11:53;;;;;;;2.97;1.05;;;23.90;62.70;;;;;;5011181;28;20026;-76
2021/08/10 12:14:23;;;;;;;1.63;1.17;;;23.90;62.40;;;;;;5012583;28;20022;-76
2021/08/10 12:17:09;;;;;;;2.03;1.13;;;24.00;63.00;;;;;;5011671;28;20030;-76
2021/08/10 12:19:46;;;;;;;1.95;1.00;;;24.00;63.20;;;;;;5010460;28;20036;-77
2021/08/10 12:22:19;;;;;;;1.70;0.90;;;24.00;63.00;;;;;;5012611;28;20025;-77
2021/08/10 12:24:46;;;;;;;4.18;1.05;;;24.10;63.00;;;;;;5010457;28;20024;-76
2021/08/10 12:27:13;;;;;;;2.75;1.17;;;24.10;63.50;;;;;;5011151;28;20026;-77
2021/08/10 12:29:42;;;;;;;2.40;1.08;;;24.20;63.60;;;;;;5009542;28;20041;-78
2021/08/10 12:32:10;;;;;;;3.65;1.10;;;24.10;62.40;;;;;;5010770;28;20025;-77
2021/08/10 12:34:40;;;;;;;3.28;1.15;;;24.10;62.30;;;;;;5011850;28;20052;-80
2021/08/10 12:37:08;;;;;;;2.57;1.30;;;24.20;61.90;;;;;;5014442;28;20049;-78
2021/08/10 12:39:42;;;;;;;1.27;0.85;;;24.30;61.20;;;;;;5013693;28;20026;-79
2021/08/10 12:42:09;;;;;;;1.73;1.23;;;24.40;60.10;;;;;;5014928;28;20022;-79
2021/08/10 12:44:36;;;;;;;1.73;1.10;;;24.50;60.30;;;;;;5030803;28;20033;-78
2021/08/10 12:47:06;;;;;;;1.85;1.35;;;24.50;60.80;;;;;;5014143;28;20464;-79
2021/08/10 12:49:50;;;;;;;3.47;1.30;;;24.50;60.40;;;;;;5013407;28;20029;-80
2021/08/10 12:52:17;;;;;;;1.92;1.10;;;24.70;58.80;;;;;;5014373;28;20030;-78
2021/08/10 12:54:51;;;;;;;2.72;0.98;;;24.60;59.60;;;;;;5014950;28;20022;-77
2021/08/10 12:57:26;;;;;;;2.42;1.02;;;24.60;59.80;;;;;;5014717;28;20017;-81